sensor_id;sensor_type;location;lat;lon;timestamp;P1;durP1;ratioP1;P2;durP2;ratioP2
32934;SDS011;19292;51.532;7.650;2022-08-19T00:01:20;13.07;;;11.73;;
32934;SDS011;19292;51.532;7.650;2022-08-19T00:03:46;11.32;;;10.32;;
32934;SDS011;19292;51.532;7.650;2022-08-19T00:06:11;11.68;;;10.55;;
32934;SDS011;19292;51.532;7.650;2022-08-19T00:08:37;12.43;;;11.13;;
32934;SDS011;19292;51.532;7.650;2022-08-19T00:11:02;12.52;;;11.40;;
32934;SDS011;19292;51.532;7.650;2022-08-19T00:13:28;12.52;;;10.98;;
32934;SDS011;19292;51.532;7.650;2022-08-19T00:15:54;12.50;;;10.52;;
32934;SDS011;19292;51.532;7.650;2022-08-19T00:18:20;12.40;;;11.20;;
32934;SDS011;19292;51.532;7.650;2022-08-19T00:20:45;12.40;;;11.20;;
32934;SDS011;19292;51.532;7.650;2022-08-19T00:23:11;12.50;;;11.30;;
32934;SDS011;19292;51.532;7.650;2022-08-19T00:25:36;12.82;;;11.30;;
32934;SDS011;19292;51.532;7.650;2022-08-19T00:28:02;15.65;;;12.65;;
32934;SDS011;19292;51.532;7.650;2022-08-19T00:30:28;16.20;;;13.18;;
32934;SDS011;19292;51.532;7.650;2022-08-19T00:32:53;16.33;;;14.48;;
32934;SDS011;19292;51.532;7.650;2022-08-19T00:35:22;14.35;;;12.55;;
32934;SDS011;19292;51.532;7.650;2022-08-19T00:37:48;14.65;;;13.25;;
32934;SDS011;19292;51.532;7.650;2022-08-19T00:40:14;17.08;;;15.38;;
32934;SDS011;19292;51.532;7.650;2022-08-19T00:42:41;16.05;;;14.38;;
32934;SDS011;19292;51.532;7.650;2022-08-19T00:45:09;15.68;;;14.10;;
32934;SDS011;19292;51.532;7.650;2022-08-19T00:47:37;17.02;;;15.32;;
32934;SDS011;19292;51.532;7.650;2022-08-19T00:50:03;17.42;;;15.52;;
32934;SDS011;19292;51.532;7.650;2022-08-19T00:52:33;17.30;;;15.50;;
32934;SDS011;19292;51.532;7.650;2022-08-19T00:55:00;18.35;;;16.20;;
32934;SDS011;19292;51.532;7.650;2022-08-19T00:57:28;17.80;;;16.08;;
32934;SDS011;19292;51.532;7.650;2022-08-19T00:59:55;17.80;;;16.02;;
32934;SDS011;19292;51.532;7.650;2022-08-19T01:02:21;17.17;;;15.48;;
32934;SDS011;19292;51.532;7.650;2022-08-19T01:04:47;20.23;;;18.15;;
32934;SDS011;19292;51.532;7.650;2022-08-19T01:07:12;20.52;;;18.20;;
32934;SDS011;19292;51.532;7.650;2022-08-19T01:09:38;18.73;;;16.85;;
32934;SDS011;19292;51.532;7.650;2022-08-19T01:12:03;20.98;;;18.88;;
32934;SDS011;19292;51.532;7.650;2022-08-19T01:14:28;20.85;;;18.42;;
32934;SDS011;19292;51.532;7.650;2022-08-19T01:16:54;20.08;;;17.98;;
32934;SDS011;19292;51.532;7.650;2022-08-19T01:19:24;20.73;;;18.58;;
32934;SDS011;19292;51.532;7.650;2022-08-19T01:22:43;21.98;;;19.73;;
32934;SDS011;19292;51.532;7.650;2022-08-19T01:25:00;20.58;;;18.48;;
32934;SDS011;19292;51.532;7.650;2022-08-19T01:27:26;22.85;;;20.55;;
32934;SDS011;19292;51.532;7.650;2022-08-19T01:29:51;23.92;;;20.83;;
32934;SDS011;19292;51.532;7.650;2022-08-19T01:32:17;23.25;;;20.95;;
32934;SDS011;19292;51.532;7.650;2022-08-19T01:34:42;22.73;;;20.42;;
32934;SDS011;19292;51.532;7.650;2022-08-19T01:37:12;22.88;;;20.42;;
32934;SDS011;19292;51.532;7.650;2022-08-19T01:39:39;24.40;;;21.70;;
32934;SDS011;19292;51.532;7.650;2022-08-19T01:42:05;25.40;;;22.80;;
32934;SDS011;19292;51.532;7.650;2022-08-19T01:44:32;24.77;;;22.17;;
32934;SDS011;19292;51.532;7.650;2022-08-19T01:46:57;26.55;;;23.67;;
32934;SDS011;19292;51.532;7.650;2022-08-19T01:49:23;25.15;;;22.70;;
32934;SDS011;19292;51.532;7.650;2022-08-19T01:51:50;29.58;;;26.33;;
32934;SDS011;19292;51.532;7.650;2022-08-19T01:54:16;26.23;;;23.48;;
32934;SDS011;19292;51.532;7.650;2022-08-19T01:56:42;28.27;;;25.35;;
32934;SDS011;19292;51.532;7.650;2022-08-19T01:59:08;28.23;;;25.23;;
32934;SDS011;19292;51.532;7.650;2022-08-19T02:01:36;29.30;;;26.40;;
32934;SDS011;19292;51.532;7.650;2022-08-19T02:04:01;27.83;;;25.05;;
32934;SDS011;19292;51.532;7.650;2022-08-19T02:06:27;28.17;;;24.77;;
32934;SDS011;19292;51.532;7.650;2022-08-19T02:08:53;30.10;;;26.92;;
32934;SDS011;19292;51.532;7.650;2022-08-19T02:11:23;29.38;;;26.20;;
32934;SDS011;19292;51.532;7.650;2022-08-19T02:13:51;29.98;;;26.95;;
32934;SDS011;19292;51.532;7.650;2022-08-19T02:16:17;30.60;;;27.38;;
32934;SDS011;19292;51.532;7.650;2022-08-19T02:18:44;30.08;;;26.90;;
32934;SDS011;19292;51.532;7.650;2022-08-19T02:21:10;34.47;;;28.60;;
32934;SDS011;19292;51.532;7.650;2022-08-19T02:23:35;32.67;;;29.20;;
32934;SDS011;19292;51.532;7.650;2022-08-19T02:31:32;30.63;;;27.52;;
32934;SDS011;19292;51.532;7.650;2022-08-19T02:33:58;28.60;;;25.67;;
32934;SDS011;19292;51.532;7.650;2022-08-19T02:36:26;36.10;;;29.30;;
32934;SDS011;19292;51.532;7.650;2022-08-19T02:38:52;32.38;;;28.92;;
32934;SDS011;19292;51.532;7.650;2022-08-19T02:41:19;31.80;;;28.48;;
32934;SDS011;19292;51.532;7.650;2022-08-19T02:43:47;30.08;;;26.88;;
32934;SDS011;19292;51.532;7.650;2022-08-19T02:48:45;30.42;;;27.02;;
32934;SDS011;19292;51.532;7.650;2022-08-19T02:51:21;33.40;;;29.88;;
32934;SDS011;19292;51.532;7.650;2022-08-19T02:53:48;31.30;;;27.90;;
32934;SDS011;19292;51.532;7.650;2022-08-19T02:56:14;30.23;;;27.10;;
32934;SDS011;19292;51.532;7.650;2022-08-19T02:58:40;31.85;;;27.60;;
32934;SDS011;19292;51.532;7.650;2022-08-19T03:01:05;30.65;;;27.35;;
32934;SDS011;19292;51.532;7.650;2022-08-19T03:03:31;30.92;;;27.60;;
32934;SDS011;19292;51.532;7.650;2022-08-19T03:06:12;31.48;;;27.58;;
32934;SDS011;19292;51.532;7.650;2022-08-19T03:08:40;30.20;;;26.98;;
32934;SDS011;19292;51.532;7.650;2022-08-19T03:11:12;31.88;;;28.52;;
32934;SDS011;19292;51.532;7.650;2022-08-19T03:13:42;31.90;;;27.48;;
32934;SDS011;19292;51.532;7.650;2022-08-19T03:16:08;32.60;;;29.05;;
32934;SDS011;19292;51.532;7.650;2022-08-19T03:18:33;34.60;;;29.52;;
32934;SDS011;19292;51.532;7.650;2022-08-19T03:20:59;32.70;;;29.27;;
32934;SDS011;19292;51.532;7.650;2022-08-19T03:23:25;35.20;;;29.55;;
32934;SDS011;19292;51.532;7.650;2022-08-19T03:25:52;32.40;;;28.88;;
32934;SDS011;19292;51.532;7.650;2022-08-19T03:28:19;34.03;;;29.10;;
32934;SDS011;19292;51.532;7.650;2022-08-19T03:30:55;36.30;;;30.77;;
32934;SDS011;19292;51.532;7.650;2022-08-19T03:33:25;34.60;;;29.23;;
32934;SDS011;19292;51.532;7.650;2022-08-19T03:36:05;37.17;;;30.35;;
32934;SDS011;19292;51.532;7.650;2022-08-19T03:38:32;38.00;;;31.38;;
32934;SDS011;19292;51.532;7.650;2022-08-19T03:41:01;34.58;;;29.48;;
32934;SDS011;19292;51.532;7.650;2022-08-19T03:43:28;36.13;;;30.37;;
32934;SDS011;19292;51.532;7.650;2022-08-19T03:46:04;31.20;;;27.85;;
32934;SDS011;19292;51.532;7.650;2022-08-19T03:48:32;33.55;;;29.55;;
32934;SDS011;19292;51.532;7.650;2022-08-19T03:50:58;33.22;;;29.70;;
32934;SDS011;19292;51.532;7.650;2022-08-19T03:53:25;33.90;;;30.00;;
32934;SDS011;19292;51.532;7.650;2022-08-19T03:55:52;34.95;;;29.35;;
32934;SDS011;19292;51.532;7.650;2022-08-19T03:58:18;35.10;;;29.73;;
32934;SDS011;19292;51.532;7.650;2022-08-19T04:00:44;37.67;;;32.13;;
32934;SDS011;19292;51.532;7.650;2022-08-19T04:03:09;34.20;;;30.48;;
32934;SDS011;19292;51.532;7.650;2022-08-19T04:05:35;33.80;;;29.88;;
32934;SDS011;19292;51.532;7.650;2022-08-19T04:08:00;34.47;;;30.30;;
32934;SDS011;19292;51.532;7.650;2022-08-19T04:10:26;36.25;;;30.05;;
32934;SDS011;19292;51.532;7.650;2022-08-19T04:12:53;34.53;;;30.83;;
32934;SDS011;19292;51.532;7.650;2022-08-19T04:15:18;34.70;;;30.10;;
32934;SDS011;19292;51.532;7.650;2022-08-19T04:17:46;34.97;;;30.13;;
32934;SDS011;19292;51.532;7.650;2022-08-19T04:20:12;34.40;;;30.70;;
32934;SDS011;19292;51.532;7.650;2022-08-19T04:22:37;33.95;;;29.33;;
32934;SDS011;19292;51.532;7.650;2022-08-19T04:25:03;32.80;;;29.23;;
32934;SDS011;19292;51.532;7.650;2022-08-19T04:27:31;31.85;;;28.15;;
32934;SDS011;19292;51.532;7.650;2022-08-19T04:29:58;33.08;;;29.52;;
32934;SDS011;19292;51.532;7.650;2022-08-19T04:32:23;36.00;;;30.67;;
32934;SDS011;19292;51.532;7.650;2022-08-19T04:34:49;33.08;;;28.90;;
32934;SDS011;19292;51.532;7.650;2022-08-19T04:37:14;38.55;;;30.35;;
32934;SDS011;19292;51.532;7.650;2022-08-19T04:39:39;42.28;;;30.60;;
32934;SDS011;19292;51.532;7.650;2022-08-19T04:42:24;37.90;;;29.52;;
32934;SDS011;19292;51.532;7.650;2022-08-19T04:45:08;34.08;;;29.00;;
32934;SDS011;19292;51.532;7.650;2022-08-19T04:47:37;33.58;;;29.02;;
32934;SDS011;19292;51.532;7.650;2022-08-19T04:50:03;32.03;;;28.42;;
32934;SDS011;19292;51.532;7.650;2022-08-19T04:52:29;35.83;;;29.55;;
32934;SDS011;19292;51.532;7.650;2022-08-19T04:54:56;32.40;;;28.90;;
32934;SDS011;19292;51.532;7.650;2022-08-19T04:57:22;33.67;;;28.50;;
32934;SDS011;19292;51.532;7.650;2022-08-19T04:59:47;31.20;;;27.90;;
32934;SDS011;19292;51.532;7.650;2022-08-19T05:02:13;34.92;;;28.63;;
32934;SDS011;19292;51.532;7.650;2022-08-19T05:04:38;31.67;;;27.70;;
32934;SDS011;19292;51.532;7.650;2022-08-19T05:07:05;31.70;;;28.35;;
32934;SDS011;19292;51.532;7.650;2022-08-19T05:09:31;31.92;;;27.17;;
32934;SDS011;19292;51.532;7.650;2022-08-19T05:11:56;30.75;;;27.55;;
32934;SDS011;19292;51.532;7.650;2022-08-19T05:14:22;30.48;;;27.17;;
32934;SDS011;19292;51.532;7.650;2022-08-19T05:16:48;29.33;;;26.17;;
32934;SDS011;19292;51.532;7.650;2022-08-19T05:19:13;32.65;;;26.55;;
32934;SDS011;19292;51.532;7.650;2022-08-19T05:21:57;31.83;;;26.77;;
32934;SDS011;19292;51.532;7.650;2022-08-19T05:24:42;29.42;;;26.08;;
32934;SDS011;19292;51.532;7.650;2022-08-19T05:27:08;30.17;;;26.27;;
32934;SDS011;19292;51.532;7.650;2022-08-19T05:29:34;28.63;;;25.63;;
32934;SDS011;19292;51.532;7.650;2022-08-19T05:32:00;30.10;;;26.27;;
32934;SDS011;19292;51.532;7.650;2022-08-19T05:34:26;28.25;;;25.23;;
32934;SDS011;19292;51.532;7.650;2022-08-19T05:36:57;28.25;;;25.35;;
32934;SDS011;19292;51.532;7.650;2022-08-19T05:39:24;28.95;;;24.90;;
32934;SDS011;19292;51.532;7.650;2022-08-19T05:41:53;30.60;;;26.52;;
32934;SDS011;19292;51.532;7.650;2022-08-19T05:44:24;28.55;;;25.60;;
32934;SDS011;19292;51.532;7.650;2022-08-19T05:46:50;31.10;;;25.20;;
32934;SDS011;19292;51.532;7.650;2022-08-19T05:49:20;32.35;;;26.75;;
32934;SDS011;19292;51.532;7.650;2022-08-19T05:51:47;30.60;;;26.50;;
32934;SDS011;19292;51.532;7.650;2022-08-19T05:54:12;28.92;;;25.80;;
32934;SDS011;19292;51.532;7.650;2022-08-19T05:56:44;30.77;;;25.45;;
32934;SDS011;19292;51.532;7.650;2022-08-19T05:59:12;29.70;;;25.90;;
32934;SDS011;19292;51.532;7.650;2022-08-19T06:01:39;31.10;;;27.65;;
32934;SDS011;19292;51.532;7.650;2022-08-19T06:04:05;29.05;;;25.60;;
32934;SDS011;19292;51.532;7.650;2022-08-19T06:06:31;28.80;;;25.30;;
32934;SDS011;19292;51.532;7.650;2022-08-19T06:08:59;29.45;;;26.40;;
32934;SDS011;19292;51.532;7.650;2022-08-19T06:11:32;30.52;;;27.02;;
32934;SDS011;19292;51.532;7.650;2022-08-19T06:14:04;30.48;;;27.40;;
32934;SDS011;19292;51.532;7.650;2022-08-19T06:16:33;31.70;;;26.52;;
32934;SDS011;19292;51.532;7.650;2022-08-19T06:19:00;29.52;;;25.38;;
32934;SDS011;19292;51.532;7.650;2022-08-19T06:21:28;28.90;;;25.90;;
32934;SDS011;19292;51.532;7.650;2022-08-19T06:23:55;29.27;;;26.17;;
32934;SDS011;19292;51.532;7.650;2022-08-19T06:26:21;29.10;;;26.10;;
32934;SDS011;19292;51.532;7.650;2022-08-19T06:28:47;27.73;;;24.83;;
32934;SDS011;19292;51.532;7.650;2022-08-19T06:31:14;27.85;;;25.02;;
32934;SDS011;19292;51.532;7.650;2022-08-19T06:33:47;28.55;;;25.55;;
32934;SDS011;19292;51.532;7.650;2022-08-19T06:36:24;29.40;;;24.83;;
32934;SDS011;19292;51.532;7.650;2022-08-19T06:38:57;28.42;;;25.48;;
32934;SDS011;19292;51.532;7.650;2022-08-19T06:41:26;31.30;;;27.98;;
32934;SDS011;19292;51.532;7.650;2022-08-19T06:43:52;29.25;;;26.25;;
32934;SDS011;19292;51.532;7.650;2022-08-19T06:46:18;29.02;;;25.90;;
32934;SDS011;19292;51.532;7.650;2022-08-19T06:48:44;28.05;;;25.02;;
32934;SDS011;19292;51.532;7.650;2022-08-19T06:51:11;29.40;;;24.90;;
32934;SDS011;19292;51.532;7.650;2022-08-19T06:53:36;29.70;;;26.13;;
32934;SDS011;19292;51.532;7.650;2022-08-19T06:56:04;30.98;;;27.42;;
32934;SDS011;19292;51.532;7.650;2022-08-19T06:58:29;29.98;;;25.92;;
32934;SDS011;19292;51.532;7.650;2022-08-19T07:01:06;32.75;;;25.15;;
32934;SDS011;19292;51.532;7.650;2022-08-19T07:03:33;29.00;;;25.45;;
32934;SDS011;19292;51.532;7.650;2022-08-19T07:06:03;33.03;;;27.17;;
32934;SDS011;19292;51.532;7.650;2022-08-19T07:08:33;38.47;;;29.92;;
32934;SDS011;19292;51.532;7.650;2022-08-19T07:10:59;29.13;;;25.13;;
32934;SDS011;19292;51.532;7.650;2022-08-19T07:13:25;31.63;;;27.25;;
32934;SDS011;19292;51.532;7.650;2022-08-19T07:15:50;33.17;;;27.30;;
32934;SDS011;19292;51.532;7.650;2022-08-19T07:18:17;33.45;;;26.80;;
32934;SDS011;19292;51.532;7.650;2022-08-19T07:20:44;30.77;;;25.30;;
32934;SDS011;19292;51.532;7.650;2022-08-19T07:23:10;32.17;;;25.77;;
32934;SDS011;19292;51.532;7.650;2022-08-19T07:25:36;30.60;;;24.60;;
32934;SDS011;19292;51.532;7.650;2022-08-19T07:28:02;27.48;;;24.08;;
32934;SDS011;19292;51.532;7.650;2022-08-19T07:30:28;30.08;;;23.63;;
32934;SDS011;19292;51.532;7.650;2022-08-19T07:32:54;28.80;;;21.42;;
32934;SDS011;19292;51.532;7.650;2022-08-19T07:35:19;24.98;;;21.45;;
32934;SDS011;19292;51.532;7.650;2022-08-19T07:37:45;24.65;;;21.70;;
32934;SDS011;19292;51.532;7.650;2022-08-19T07:40:11;25.33;;;21.42;;
32934;SDS011;19292;51.532;7.650;2022-08-19T07:42:37;25.65;;;22.92;;
32934;SDS011;19292;51.532;7.650;2022-08-19T07:45:02;31.25;;;27.38;;
32934;SDS011;19292;51.532;7.650;2022-08-19T07:47:29;30.42;;;27.10;;
32934;SDS011;19292;51.532;7.650;2022-08-19T07:49:55;32.88;;;27.35;;
32934;SDS011;19292;51.532;7.650;2022-08-19T07:52:21;30.02;;;26.35;;
32934;SDS011;19292;51.532;7.650;2022-08-19T07:54:47;30.02;;;26.30;;
32934;SDS011;19292;51.532;7.650;2022-08-19T07:57:14;29.20;;;24.80;;
32934;SDS011;19292;51.532;7.650;2022-08-19T07:59:40;26.55;;;23.75;;
32934;SDS011;19292;51.532;7.650;2022-08-19T08:02:08;25.20;;;22.40;;
32934;SDS011;19292;51.532;7.650;2022-08-19T08:04:33;25.75;;;21.40;;
32934;SDS011;19292;51.532;7.650;2022-08-19T08:07:18;28.63;;;20.60;;
32934;SDS011;19292;51.532;7.650;2022-08-19T08:10:03;22.58;;;20.27;;
32934;SDS011;19292;51.532;7.650;2022-08-19T08:12:32;22.60;;;19.27;;
32934;SDS011;19292;51.532;7.650;2022-08-19T08:15:01;23.70;;;19.75;;
32934;SDS011;19292;51.532;7.650;2022-08-19T08:17:30;22.20;;;16.52;;
32934;SDS011;19292;51.532;7.650;2022-08-19T08:19:59;16.00;;;14.13;;
32934;SDS011;19292;51.532;7.650;2022-08-19T08:22:25;17.90;;;15.52;;
32934;SDS011;19292;51.532;7.650;2022-08-19T08:25:11;15.85;;;13.05;;
32934;SDS011;19292;51.532;7.650;2022-08-19T08:27:39;18.35;;;15.57;;
32934;SDS011;19292;51.532;7.650;2022-08-19T08:30:09;16.08;;;14.45;;
32934;SDS011;19292;51.532;7.650;2022-08-19T08:32:36;18.52;;;12.75;;
32934;SDS011;19292;51.532;7.650;2022-08-19T08:35:02;12.02;;;10.45;;
32934;SDS011;19292;51.532;7.650;2022-08-19T08:37:32;13.80;;;12.40;;
32934;SDS011;19292;51.532;7.650;2022-08-19T08:39:57;13.55;;;10.93;;
32934;SDS011;19292;51.532;7.650;2022-08-19T08:42:36;24.77;;;12.40;;
32934;SDS011;19292;51.532;7.650;2022-08-19T08:45:05;16.00;;;14.48;;
32934;SDS011;19292;51.532;7.650;2022-08-19T08:47:38;15.07;;;13.15;;
32934;SDS011;19292;51.532;7.650;2022-08-19T08:50:10;16.13;;;13.02;;
32934;SDS011;19292;51.532;7.650;2022-08-19T08:52:41;15.32;;;12.95;;
32934;SDS011;19292;51.532;7.650;2022-08-19T08:55:20;17.00;;;12.73;;
32934;SDS011;19292;51.532;7.650;2022-08-19T09:00:24;15.48;;;13.88;;
32934;SDS011;19292;51.532;7.650;2022-08-19T09:02:52;16.48;;;13.55;;
32934;SDS011;19292;51.532;7.650;2022-08-19T09:05:19;15.45;;;12.80;;
32934;SDS011;19292;51.532;7.650;2022-08-19T09:08:07;15.95;;;14.25;;
32934;SDS011;19292;51.532;7.650;2022-08-19T09:10:39;15.50;;;12.95;;
32934;SDS011;19292;51.532;7.650;2022-08-19T09:15:44;13.57;;;10.68;;
32934;SDS011;19292;51.532;7.650;2022-08-19T09:18:12;13.00;;;11.35;;
32934;SDS011;19292;51.532;7.650;2022-08-19T09:20:38;13.90;;;11.45;;
32934;SDS011;19292;51.532;7.650;2022-08-19T09:23:04;11.90;;;10.18;;
32934;SDS011;19292;51.532;7.650;2022-08-19T09:25:29;12.18;;;8.63;;
32934;SDS011;19292;51.532;7.650;2022-08-19T09:27:57;15.63;;;12.02;;
32934;SDS011;19292;51.532;7.650;2022-08-19T09:30:28;13.07;;;11.25;;
32934;SDS011;19292;51.532;7.650;2022-08-19T09:32:55;11.18;;;10.07;;
32934;SDS011;19292;51.532;7.650;2022-08-19T09:35:21;13.05;;;11.60;;
32934;SDS011;19292;51.532;7.650;2022-08-19T09:37:48;15.18;;;11.35;;
32934;SDS011;19292;51.532;7.650;2022-08-19T09:40:14;15.70;;;10.93;;
32934;SDS011;19292;51.532;7.650;2022-08-19T09:42:40;15.93;;;12.95;;
32934;SDS011;19292;51.532;7.650;2022-08-19T09:45:08;11.57;;;8.82;;
32934;SDS011;19292;51.532;7.650;2022-08-19T09:47:34;7.40;;;6.15;;
32934;SDS011;19292;51.532;7.650;2022-08-19T09:50:03;10.05;;;8.65;;
32934;SDS011;19292;51.532;7.650;2022-08-19T09:52:30;9.77;;;8.77;;
32934;SDS011;19292;51.532;7.650;2022-08-19T09:54:56;11.52;;;9.00;;
32934;SDS011;19292;51.532;7.650;2022-08-19T09:57:21;8.02;;;7.22;;
32934;SDS011;19292;51.532;7.650;2022-08-19T09:59:46;11.60;;;9.68;;
32934;SDS011;19292;51.532;7.650;2022-08-19T10:02:12;11.57;;;8.13;;
32934;SDS011;19292;51.532;7.650;2022-08-19T10:04:38;9.82;;;8.30;;
32934;SDS011;19292;51.532;7.650;2022-08-19T10:07:23;11.07;;;9.90;;
32934;SDS011;19292;51.532;7.650;2022-08-19T10:09:48;13.73;;;10.05;;
32934;SDS011;19292;51.532;7.650;2022-08-19T10:12:13;13.85;;;12.45;;
32934;SDS011;19292;51.532;7.650;2022-08-19T10:14:40;13.40;;;11.60;;
32934;SDS011;19292;51.532;7.650;2022-08-19T10:17:05;14.80;;;11.15;;
32934;SDS011;19292;51.532;7.650;2022-08-19T10:19:31;13.02;;;9.90;;
32934;SDS011;19292;51.532;7.650;2022-08-19T10:22:02;13.77;;;12.38;;
32934;SDS011;19292;51.532;7.650;2022-08-19T10:24:28;16.27;;;14.57;;
32934;SDS011;19292;51.532;7.650;2022-08-19T10:26:55;13.45;;;12.10;;
32934;SDS011;19292;51.532;7.650;2022-08-19T10:29:21;12.45;;;11.07;;
32934;SDS011;19292;51.532;7.650;2022-08-19T10:31:46;12.13;;;9.45;;
32934;SDS011;19292;51.532;7.650;2022-08-19T10:34:12;11.38;;;9.07;;
32934;SDS011;19292;51.532;7.650;2022-08-19T10:36:37;11.57;;;9.70;;
32934;SDS011;19292;51.532;7.650;2022-08-19T10:39:05;11.07;;;9.95;;
32934;SDS011;19292;51.532;7.650;2022-08-19T10:41:33;10.82;;;8.05;;
32934;SDS011;19292;51.532;7.650;2022-08-19T10:44:02;9.48;;;8.43;;
32934;SDS011;19292;51.532;7.650;2022-08-19T10:46:32;10.27;;;9.10;;
32934;SDS011;19292;51.532;7.650;2022-08-19T10:49:03;9.98;;;9.07;;
32934;SDS011;19292;51.532;7.650;2022-08-19T10:51:29;10.82;;;9.73;;
32934;SDS011;19292;51.532;7.650;2022-08-19T10:54:13;11.48;;;9.30;;
32934;SDS011;19292;51.532;7.650;2022-08-19T10:56:38;11.10;;;10.10;;
32934;SDS011;19292;51.532;7.650;2022-08-19T10:59:17;12.15;;;9.35;;
32934;SDS011;19292;51.532;7.650;2022-08-19T11:01:47;9.95;;;8.23;;
32934;SDS011;19292;51.532;7.650;2022-08-19T11:04:12;14.70;;;10.35;;
32934;SDS011;19292;51.532;7.650;2022-08-19T11:06:41;11.05;;;8.10;;
32934;SDS011;19292;51.532;7.650;2022-08-19T11:09:08;11.55;;;9.48;;
32934;SDS011;19292;51.532;7.650;2022-08-19T11:11:35;10.23;;;7.95;;
32934;SDS011;19292;51.532;7.650;2022-08-19T11:14:05;10.65;;;7.43;;
32934;SDS011;19292;51.532;7.650;2022-08-19T11:16:31;9.13;;;7.93;;
32934;SDS011;19292;51.532;7.650;2022-08-19T11:18:58;9.88;;;7.72;;
32934;SDS011;19292;51.532;7.650;2022-08-19T11:21:32;14.05;;;7.88;;
32934;SDS011;19292;51.532;7.650;2022-08-19T11:24:00;9.05;;;7.20;;
32934;SDS011;19292;51.532;7.650;2022-08-19T11:26:28;7.63;;;6.90;;
32934;SDS011;19292;51.532;7.650;2022-08-19T11:28:54;14.07;;;6.97;;
32934;SDS011;19292;51.532;7.650;2022-08-19T11:31:22;6.47;;;4.93;;
32934;SDS011;19292;51.532;7.650;2022-08-19T11:33:49;6.78;;;5.00;;
32934;SDS011;19292;51.532;7.650;2022-08-19T11:36:16;6.45;;;5.85;;
32934;SDS011;19292;51.532;7.650;2022-08-19T11:38:42;8.65;;;7.22;;
32934;SDS011;19292;51.532;7.650;2022-08-19T11:41:08;10.20;;;8.73;;
32934;SDS011;19292;51.532;7.650;2022-08-19T11:43:33;10.57;;;8.32;;
32934;SDS011;19292;51.532;7.650;2022-08-19T11:45:59;10.25;;;6.95;;
32934;SDS011;19292;51.532;7.650;2022-08-19T11:48:29;12.00;;;10.73;;
32934;SDS011;19292;51.532;7.650;2022-08-19T11:50:54;9.52;;;8.57;;
32934;SDS011;19292;51.532;7.650;2022-08-19T11:53:22;10.63;;;9.32;;
32934;SDS011;19292;51.532;7.650;2022-08-19T11:55:48;8.70;;;7.80;;
32934;SDS011;19292;51.532;7.650;2022-08-19T11:58:15;7.90;;;6.35;;
32934;SDS011;19292;51.532;7.650;2022-08-19T12:00:41;7.47;;;6.78;;
32934;SDS011;19292;51.532;7.650;2022-08-19T12:03:10;9.77;;;7.45;;
32934;SDS011;19292;51.532;7.650;2022-08-19T12:05:36;12.15;;;11.05;;
32934;SDS011;19292;51.532;7.650;2022-08-19T12:08:02;22.02;;;20.55;;
32934;SDS011;19292;51.532;7.650;2022-08-19T12:10:28;14.98;;;13.98;;
32934;SDS011;19292;51.532;7.650;2022-08-19T12:12:53;15.40;;;13.98;;
32934;SDS011;19292;51.532;7.650;2022-08-19T12:15:19;22.13;;;20.58;;
32934;SDS011;19292;51.532;7.650;2022-08-19T12:17:44;21.40;;;20.00;;
32934;SDS011;19292;51.532;7.650;2022-08-19T12:20:10;22.23;;;20.73;;
32934;SDS011;19292;51.532;7.650;2022-08-19T12:22:38;26.63;;;24.73;;
32934;SDS011;19292;51.532;7.650;2022-08-19T12:25:04;23.95;;;22.35;;
32934;SDS011;19292;51.532;7.650;2022-08-19T12:27:30;25.95;;;24.27;;
32934;SDS011;19292;51.532;7.650;2022-08-19T12:29:56;29.95;;;28.27;;
32934;SDS011;19292;51.532;7.650;2022-08-19T12:32:22;31.92;;;30.13;;
32934;SDS011;19292;51.532;7.650;2022-08-19T12:34:49;26.73;;;25.15;;
32934;SDS011;19292;51.532;7.650;2022-08-19T12:37:15;32.25;;;30.38;;
32934;SDS011;19292;51.532;7.650;2022-08-19T12:39:41;29.92;;;27.92;;
32934;SDS011;19292;51.532;7.650;2022-08-19T12:42:08;25.98;;;24.33;;
32934;SDS011;19292;51.532;7.650;2022-08-19T12:44:35;25.80;;;24.08;;
32934;SDS011;19292;51.532;7.650;2022-08-19T12:47:02;27.85;;;25.90;;
32934;SDS011;19292;51.532;7.650;2022-08-19T12:49:29;22.85;;;21.20;;
32934;SDS011;19292;51.532;7.650;2022-08-19T12:52:05;27.98;;;26.45;;
32934;SDS011;19292;51.532;7.650;2022-08-19T12:54:32;25.95;;;24.15;;
32934;SDS011;19292;51.532;7.650;2022-08-19T12:56:58;27.45;;;25.92;;
32934;SDS011;19292;51.532;7.650;2022-08-19T12:59:24;30.45;;;28.55;;
32934;SDS011;19292;51.532;7.650;2022-08-19T13:01:50;26.65;;;25.20;;
32934;SDS011;19292;51.532;7.650;2022-08-19T13:04:15;29.80;;;27.65;;
32934;SDS011;19292;51.532;7.650;2022-08-19T13:06:41;25.88;;;24.25;;
32934;SDS011;19292;51.532;7.650;2022-08-19T13:09:07;27.50;;;25.80;;
32934;SDS011;19292;51.532;7.650;2022-08-19T13:11:32;27.27;;;25.45;;
32934;SDS011;19292;51.532;7.650;2022-08-19T13:13:59;29.20;;;27.48;;
32934;SDS011;19292;51.532;7.650;2022-08-19T13:16:24;39.10;;;36.58;;
32934;SDS011;19292;51.532;7.650;2022-08-19T13:18:52;50.35;;;47.83;;
32934;SDS011;19292;51.532;7.650;2022-08-19T13:21:17;45.03;;;42.55;;
32934;SDS011;19292;51.532;7.650;2022-08-19T13:23:44;64.15;;;60.75;;
32934;SDS011;19292;51.532;7.650;2022-08-19T13:26:10;69.20;;;65.35;;
32934;SDS011;19292;51.532;7.650;2022-08-19T13:28:36;62.65;;;59.22;;
32934;SDS011;19292;51.532;7.650;2022-08-19T13:31:21;70.30;;;66.53;;
32934;SDS011;19292;51.532;7.650;2022-08-19T13:34:06;61.80;;;58.47;;
32934;SDS011;19292;51.532;7.650;2022-08-19T13:36:32;71.22;;;67.28;;
32934;SDS011;19292;51.532;7.650;2022-08-19T13:38:58;56.97;;;53.72;;
32934;SDS011;19292;51.532;7.650;2022-08-19T13:41:24;64.57;;;61.17;;
32934;SDS011;19292;51.532;7.650;2022-08-19T13:43:50;61.67;;;58.42;;
32934;SDS011;19292;51.532;7.650;2022-08-19T13:46:15;61.78;;;58.42;;
32934;SDS011;19292;51.532;7.650;2022-08-19T13:48:41;68.80;;;64.78;;
32934;SDS011;19292;51.532;7.650;2022-08-19T13:51:09;70.68;;;66.88;;
32934;SDS011;19292;51.532;7.650;2022-08-19T13:53:36;56.92;;;53.70;;
32934;SDS011;19292;51.532;7.650;2022-08-19T13:56:07;57.50;;;54.42;;
32934;SDS011;19292;51.532;7.650;2022-08-19T13:58:35;58.25;;;55.15;;
32934;SDS011;19292;51.532;7.650;2022-08-19T14:01:01;53.67;;;50.63;;
32934;SDS011;19292;51.532;7.650;2022-08-19T14:03:27;59.70;;;56.42;;
32934;SDS011;19292;51.532;7.650;2022-08-19T14:05:52;65.25;;;61.70;;
32934;SDS011;19292;51.532;7.650;2022-08-19T14:08:18;42.80;;;40.40;;
32934;SDS011;19292;51.532;7.650;2022-08-19T14:10:44;49.00;;;46.40;;
32934;SDS011;19292;51.532;7.650;2022-08-19T14:13:12;31.02;;;29.15;;
32934;SDS011;19292;51.532;7.650;2022-08-19T14:15:38;33.83;;;31.95;;
32934;SDS011;19292;51.532;7.650;2022-08-19T14:18:04;27.70;;;25.73;;
32934;SDS011;19292;51.532;7.650;2022-08-19T14:20:29;28.10;;;26.58;;
32934;SDS011;19292;51.532;7.650;2022-08-19T14:22:55;21.25;;;19.80;;
32934;SDS011;19292;51.532;7.650;2022-08-19T14:25:21;26.42;;;24.83;;
32934;SDS011;19292;51.532;7.650;2022-08-19T14:27:49;20.63;;;19.20;;
32934;SDS011;19292;51.532;7.650;2022-08-19T14:30:17;22.85;;;21.00;;
32934;SDS011;19292;51.532;7.650;2022-08-19T14:32:44;21.67;;;20.27;;
32934;SDS011;19292;51.532;7.650;2022-08-19T14:35:10;15.65;;;14.43;;
32934;SDS011;19292;51.532;7.650;2022-08-19T14:37:37;20.63;;;19.08;;
32934;SDS011;19292;51.532;7.650;2022-08-19T14:40:03;23.60;;;22.30;;